Wetterdaten: August 2017
Datum Temp Feuchte Luftdruck Regen Wind Richtung Sonnenschein UV Solar Windben
01.08.2017 18,8 C 88 % 1014,0 hPa 8,2 l/m 0,0 km/h S-SO 2,58 h 1,6 UV-I 176 W/m 0,0 km/h
02.08.2017 18,8 C 85 % 1016,2 hPa 2,0 l/m 1,6 km/h S-SO 4,67 h 2,8 UV-I 273 W/m 6,4 km/h
03.08.2017 20,3 C 77 % 1009,4 hPa 4,2 l/m 3,8 km/h S 2,75 h 2,4 UV-I 222 W/m 12,1 km/h
04.08.2017 18,8 C 68 % 1011,4 hPa 0,0 l/m 2,6 km/h S-SW 4,40 h 2,9 UV-I 281 W/m 7,3 km/h
05.08.2017 14,4 C 93 % 1014,5 hPa 27,6 l/m 0,0 km/h W-NW 0,25 h 1,6 UV-I 112 W/m 0,0 km/h
06.08.2017 14,5 C 80 % 1021,8 hPa 0,2 l/m 1,0 km/h S-SW 9,10 h 3,1 UV-I 431 W/m 3,6 km/h
07.08.2017 16,0 C 76 % 1017,7 hPa 0,0 l/m 1,4 km/h S-SO 10,33 h 3,1 UV-I 430 W/m 2,4 km/h
08.08.2017 17,9 C 79 % 1009,4 hPa 0,4 l/m 8,0 km/h S-SO 3,25 h 1,7 UV-I 185 W/m 13,3 km/h
09.08.2017 16,2 C 82 % 1015,6 hPa 0,0 l/m 1,0 km/h S-SW 5,75 h 3,0 UV-I 322 W/m 3,6 km/h
10.08.2017 15,1 C 90 % 1018,4 hPa 10,0 l/m 0,0 km/h S-SO 0,42 h 1,8 UV-I 143 W/m 0,0 km/h
11.08.2017 12,6 C 96 % 1014,4 hPa 32,0 l/m 1,5 km/h N-NW 0,00 h 0,8 UV-I 55 W/m 7,6 km/h
12.08.2017 13,8 C 95 % 1014,8 hPa 13,4 l/m 2,5 km/h S 0,17 h 1,3 UV-I 99 W/m 10,9 km/h
13.08.2017 16,4 C 84 % 1019,7 hPa 2,8 l/m 0,3 km/h N-NW 7,92 h 3,2 UV-I 397 W/m 1,6 km/h
14.08.2017 17,8 C 83 % 1019,2 hPa 0,0 l/m 0,4 km/h SO 8,92 h 3,0 UV-I 375 W/m 2,8 km/h
15.08.2017 20,4 C 79 % 1014,9 hPa 0,0 l/m 1,5 km/h S-SO 5,75 h 2,4 UV-I 278 W/m 3,2 km/h
16.08.2017 18,9 C 78 % 1019,6 hPa 0,2 l/m 0,0 km/h N-NW 6,40 h 2,7 UV-I 358 W/m 1,2 km/h
17.08.2017 19,0 C 82 % 1015,1 hPa 0,2 l/m 3,5 km/h S 4,17 h 2,3 UV-I 226 W/m 4,8 km/h
18.08.2017 16,1 C 94 % 1011,8 hPa 19,0 l/m 0,0 km/h S 0,08 h 1,8 UV-I 108 W/m 0,0 km/h
19.08.2017 13,3 C 88 % 1016,7 hPa 1,4 l/m 3,0 km/h S 4,17 h 2,1 UV-I 254 W/m 8,9 km/h
20.08.2017 13,4 C 88 % 1021,4 hPa 4,2 l/m 1,2 km/h S-SW 2,00 h 1,6 UV-I 203 W/m 6,4 km/h
21.08.2017 12,4 C 85 % 1022,4 hPa 0,0 l/m 0,1 km/h W-NW 7,33 h 2,3 UV-I 323 W/m 0,8 km/h
22.08.2017 13,5 C 80 % 1020,4 hPa 0,2 l/m 0,0 km/h N-NO 8,00 h 2,4 UV-I 341 W/m 0,0 km/h
23.08.2017 16,7 C 79 % 1016,0 hPa 0,0 l/m 0,7 km/h SO 10,50 h 3,0 UV-I 408 W/m 2,4 km/h
24.08.2017 18,4 C 78 % 1015,3 hPa 0,0 l/m 1,3 km/h S 4,42 h 2,1 UV-I 247 W/m 8,4 km/h
25.08.2017 17,0 C 74 % 1017,2 hPa 0,0 l/m 0,5 km/h N-NW 9,17 h 2,7 UV-I 366 W/m 2,0 km/h
26.08.2017 19,7 C 84 % 1014,1 hPa 0,0 l/m 2,9 km/h S-SO 2,83 h 1,9 UV-I 213 W/m 4,0 km/h
27.08.2017 15,9 C 82 % 1017,7 hPa 0,0 l/m 1,0 km/h N-NW 9,98 h 2,8 UV-I 433 W/m 4,4 km/h
28.08.2017 16,0 C 80 % 1018,5 hPa 0,0 l/m 0,8 km/h SO 10,83 h 3,0 UV-I 412 W/m 3,2 km/h
29.08.2017 19,3 C 82 % 1013,2 hPa 0,0 l/m 0,0 km/h S 9,67 h 2,8 UV-I 371 W/m 0,4 km/h
30.08.2017 22,3 C 78 % 1006,6 hPa 0,0 l/m 2,4 km/h S-SO 7,08 h 2,4 UV-I 286 W/m 7,2 km/h
31.08.2017 14,6 C 92 % 1015,0 hPa 8,2 l/m 0,3 km/h N-NW 1,35 h 1,2 UV-I 121 W/m 2,4 km/h
Min-Datum 22.08.17 07.08.17 30.08.17 17 Tage 01.08.17 - - - - 01.08.17
Min-Zeit 05:35 15:30 19:25 - 00:00 - - - - 00:00
Minimum 7,5 C 41 % 1004,9 hPa - 0,0 km/h - - - - 0,0 km/h
Max-Datum 30.08.17 02.08.17 21.08.17 11.08.17 08.08.17 - 28.08.17 04.08.17 03.08.17 19.08.17
Max-Zeit 13:40 02:30 11:20 05:15 18:20 - 19:05 13:25 14:40 18:20
Maximum 28,3 C 97 % 1023,5 hPa 32,0 l/m 22,9 km/h
S-SO
- 10,75 h 7,8 UV-I 1074 W/m 40,2 km/h
S-SW
Durchschnitt 16,7 C 83 % 1015,9 hPa #134,2 l/m 1,4 km/h S #164:14 h 2,3 UV-I 273 W/m 4,2 km/h

Durchschnitt Minimum Temp.12,2 C
Durchschnitt Maximum Temp.21,9 C